createdAt,value
2022-11-23T00:00:38.138Z,97635.19
2022-11-23T00:03:05.506Z,97634.97
2022-11-23T00:05:32.732Z,97626.31
2022-11-23T00:07:59.838Z,97627.06
2022-11-23T00:10:27.200Z,97624.78
2022-11-23T00:12:54.322Z,97630.00
2022-11-23T00:15:21.417Z,97626.16
2022-11-23T00:17:48.787Z,97623.28
2022-11-23T00:20:16.013Z,97628.00
2022-11-23T00:22:43.119Z,97628.88
2022-11-23T00:25:10.536Z,97631.37
2022-11-23T00:27:37.673Z,97629.06
2022-11-23T00:30:05.285Z,97629.97
2022-11-23T00:32:32.694Z,97630.84
2022-11-23T00:34:59.828Z,97628.78
2022-11-23T00:37:26.957Z,97619.59
2022-11-23T00:39:55.362Z,97627.16
2022-11-23T00:42:22.469Z,97633.28
2022-11-23T00:44:49.735Z,97622.00
2022-11-23T00:47:17.097Z,97629.13
2022-11-23T00:49:44.226Z,97629.63
2022-11-23T00:52:11.328Z,97624.72
2022-11-23T00:54:38.698Z,97614.50
2022-11-23T00:57:07.041Z,97622.28
2022-11-23T00:59:34.457Z,97619.72
2022-11-23T01:02:01.976Z,97602.38
2022-11-23T01:04:29.270Z,97622.19
2022-11-23T01:06:58.073Z,97629.25
2022-11-23T01:09:26.808Z,97624.91
2022-11-23T01:11:53.992Z,97620.56
2022-11-23T01:14:23.290Z,97622.37
2022-11-23T01:16:50.919Z,97602.50
2022-11-23T01:19:20.537Z,97615.37
2022-11-23T01:21:47.978Z,97618.94
2022-11-23T01:24:16.547Z,97612.03
2022-11-23T01:26:44.291Z,97612.88
2022-11-23T01:29:11.768Z,97609.22
2022-11-23T01:31:44.863Z,97611.06
2022-11-23T01:34:15.015Z,97599.63
2022-11-23T01:36:42.938Z,97609.22
2022-11-23T01:39:10.338Z,97592.19
2022-11-23T01:41:38.527Z,97606.75
2022-11-23T01:44:26.154Z,97584.44
2022-11-23T01:46:53.472Z,97588.66
2022-11-23T01:49:20.846Z,97600.87
2022-11-23T01:51:48.942Z,97590.56
2022-11-23T01:54:27.247Z,97608.44
2022-11-23T01:56:55.782Z,97579.19
2022-11-23T01:59:23.630Z,97581.91
2022-11-23T02:01:50.772Z,97581.09
2022-11-23T02:04:23.074Z,97576.81
2022-11-23T02:06:50.204Z,97568.09
2022-11-23T02:09:17.584Z,97574.12
2022-11-23T02:11:44.845Z,97576.34
2022-11-23T02:14:12.871Z,97584.00
2022-11-23T02:16:39.964Z,97575.63
2022-11-23T02:19:08.612Z,97576.44
2022-11-23T02:21:35.973Z,97572.91
2022-11-23T02:24:17.849Z,97574.59
2022-11-23T02:26:45.244Z,97581.03
2022-11-23T02:29:21.035Z,97579.00
2022-11-23T02:32:06.910Z,97579.00
2022-11-23T02:34:34.090Z,97570.91
2022-11-23T02:37:01.612Z,97573.00
2022-11-23T02:39:29.643Z,97572.72
2022-11-23T02:41:57.530Z,97570.44
2022-11-23T02:44:25.176Z,97578.44
2022-11-23T02:46:52.728Z,97565.19
2022-11-23T02:49:19.846Z,97565.66
2022-11-23T02:51:47.160Z,97566.47
2022-11-23T02:54:14.281Z,97565.28
2022-11-23T02:56:41.532Z,97566.47
2022-11-23T02:59:09.107Z,97589.19
2022-11-23T03:02:01.212Z,97585.25
2022-11-23T03:04:29.873Z,97578.94
2022-11-23T03:06:57.177Z,97582.66
2022-11-23T03:09:26.198Z,97569.69
2022-11-23T03:11:54.026Z,97573.12
2022-11-23T03:14:21.147Z,97565.31
2022-11-23T03:16:48.595Z,97554.13
2022-11-23T03:19:17.360Z,97553.31
2022-11-23T03:21:44.513Z,97561.72
2022-11-23T03:24:11.629Z,97585.09
2022-11-23T03:26:39.497Z,97588.84
2022-11-23T03:29:07.320Z,97593.13
2022-11-23T03:31:34.535Z,97571.66
2022-11-23T03:34:01.897Z,97567.25
2022-11-23T03:36:30.071Z,97564.56
2022-11-23T03:38:57.220Z,97564.47
2022-11-23T03:41:24.899Z,97565.09
2022-11-23T03:43:52.168Z,97559.19
2022-11-23T03:46:19.289Z,97564.44
2022-11-23T03:48:46.703Z,97570.97
2022-11-23T03:51:13.946Z,97563.13
2022-11-23T03:53:41.079Z,97585.97
2022-11-23T03:56:08.623Z,97580.91
2022-11-23T03:58:36.012Z,97580.13
2022-11-23T04:01:03.946Z,97579.03
2022-11-23T04:03:32.063Z,97576.66
2022-11-23T04:05:59.453Z,97574.81
2022-11-23T04:08:27.543Z,97569.66
2022-11-23T04:10:58.770Z,97568.59
2022-11-23T04:13:26.088Z,97583.56
2022-11-23T04:15:53.210Z,97573.25
2022-11-23T04:18:20.647Z,97582.72
2022-11-23T04:20:47.784Z,97590.53
2022-11-23T04:23:14.947Z,97579.19
2022-11-23T04:25:43.130Z,97573.94
2022-11-23T04:28:10.606Z,97604.22
2022-11-23T04:30:38.397Z,97587.94
2022-11-23T04:33:06.426Z,97579.31
2022-11-23T04:35:34.256Z,97582.72
2022-11-23T04:38:02.475Z,97590.53
2022-11-23T04:40:31.699Z,97581.00
2022-11-23T04:43:01.742Z,97586.09
2022-11-23T04:45:29.835Z,97573.78
2022-11-23T04:47:58.417Z,97581.75
2022-11-23T04:50:25.884Z,97589.19
2022-11-23T04:52:53.557Z,97578.84
2022-11-23T04:55:21.164Z,97580.53
2022-11-23T04:57:49.171Z,97588.44
2022-11-23T05:00:16.884Z,97587.38
2022-11-23T05:02:44.393Z,97590.66
2022-11-23T05:05:11.921Z,97575.84
2022-11-23T05:07:39.408Z,97570.09
2022-11-23T05:10:06.880Z,97586.19
2022-11-23T05:12:34.379Z,97586.06
2022-11-23T05:15:02.049Z,97587.59
2022-11-23T05:17:29.669Z,97579.50
2022-11-23T05:19:56.975Z,97580.09
2022-11-23T05:22:25.256Z,97581.12
2022-11-23T05:24:54.876Z,97590.34
2022-11-23T05:27:22.239Z,97581.00
2022-11-23T05:29:50.047Z,97577.91
2022-11-23T05:32:17.390Z,97572.03
2022-11-23T05:34:45.011Z,97575.75
2022-11-23T05:37:13.041Z,97575.50
2022-11-23T05:39:41.604Z,97566.84
2022-11-23T05:42:09.437Z,97564.63
2022-11-23T05:44:37.066Z,97568.47
2022-11-23T05:47:04.564Z,97577.13
2022-11-23T05:49:32.250Z,97568.56
2022-11-23T05:52:01.030Z,97574.16
2022-11-23T05:54:28.613Z,97577.03
2022-11-23T05:56:56.492Z,97572.00
2022-11-23T05:59:24.013Z,97572.25
2022-11-23T06:01:52.332Z,97579.31
2022-11-23T06:04:20.761Z,97571.44
2022-11-23T06:06:47.911Z,97571.34
2022-11-23T06:09:15.262Z,97572.88
2022-11-23T06:11:44.740Z,97586.81
2022-11-23T06:14:14.506Z,97588.75
2022-11-23T06:16:42.410Z,97600.00
2022-11-23T06:19:10.630Z,97605.09
2022-11-23T06:21:39.054Z,97605.19
2022-11-23T06:24:06.561Z,97603.28
2022-11-23T06:26:34.352Z,97593.56
2022-11-23T06:29:01.507Z,97604.38
2022-11-23T06:31:28.911Z,97601.72
2022-11-23T06:33:56.300Z,97602.72
2022-11-23T06:36:23.472Z,97599.81
2022-11-23T06:38:50.688Z,97604.09
2022-11-23T06:41:18.217Z,97604.09
2022-11-23T06:43:46.704Z,97602.69
2022-11-23T06:46:16.153Z,97595.75
2022-11-23T06:48:44.619Z,97592.37
2022-11-23T06:51:12.247Z,97601.56
2022-11-23T06:53:39.509Z,97605.00
2022-11-23T06:56:08.041Z,97595.94
2022-11-23T06:58:35.560Z,97600.75
2022-11-23T07:01:04.396Z,97603.53
2022-11-23T07:03:32.479Z,97616.66
2022-11-23T07:06:03.982Z,97610.41
2022-11-23T07:08:31.356Z,97605.59
2022-11-23T07:11:06.652Z,97617.25
2022-11-23T07:13:34.288Z,97616.72
2022-11-23T07:16:01.564Z,97615.75
2022-11-23T07:18:28.763Z,97614.41
2022-11-23T07:21:00.016Z,97613.78
2022-11-23T07:23:27.488Z,97629.03
2022-11-23T07:25:54.685Z,97620.12
2022-11-23T07:28:22.826Z,97635.03
2022-11-23T07:30:50.375Z,97629.06
2022-11-23T07:33:18.337Z,97635.25
2022-11-23T07:35:45.966Z,97625.47
2022-11-23T07:38:13.129Z,97634.75
2022-11-23T07:40:40.270Z,97645.34
2022-11-23T07:43:09.980Z,97645.47
2022-11-23T07:45:37.334Z,97633.47
2022-11-23T07:48:06.892Z,97639.00
2022-11-23T07:50:34.528Z,97649.78
2022-11-23T07:53:02.016Z,97634.88
2022-11-23T07:55:30.691Z,97650.44
2022-11-23T07:57:58.737Z,97643.44
2022-11-23T08:00:26.627Z,97648.94
2022-11-23T08:03:25.534Z,97656.75
2022-11-23T08:05:41.169Z,97664.03
2022-11-23T08:08:08.532Z,97658.69
2022-11-23T08:10:40.004Z,97659.41
2022-11-23T08:13:10.932Z,97651.44
2022-11-23T08:15:38.041Z,97647.81
2022-11-23T08:18:05.573Z,97653.37
2022-11-23T08:20:33.526Z,97664.03
2022-11-23T08:23:00.688Z,97651.53
2022-11-23T08:25:28.389Z,97657.06
2022-11-23T08:27:56.573Z,97655.28
2022-11-23T08:30:23.719Z,97664.88
2022-11-23T08:32:50.951Z,97671.81
2022-11-23T08:35:18.524Z,97666.84
2022-11-23T08:37:45.712Z,97661.06
2022-11-23T08:40:13.357Z,97674.22
2022-11-23T08:42:40.726Z,97665.69
2022-11-23T08:45:08.135Z,97666.63
2022-11-23T08:47:35.247Z,97663.69
2022-11-23T08:50:02.622Z,97666.63
2022-11-23T08:52:29.795Z,97677.53
2022-11-23T08:54:56.905Z,97666.69
2022-11-23T08:57:24.262Z,97671.50
2022-11-23T08:59:51.357Z,97672.25
2022-11-23T09:02:18.462Z,97690.38
2022-11-23T09:04:45.811Z,97678.69
2022-11-23T09:07:13.028Z,97680.56
2022-11-23T09:09:40.176Z,97676.09
2022-11-23T09:12:08.780Z,97678.50
2022-11-23T09:14:35.907Z,97682.22
2022-11-23T09:17:03.302Z,97680.69
2022-11-23T09:19:30.666Z,97680.09
2022-11-23T09:21:58.081Z,97684.22
2022-11-23T09:24:25.918Z,97680.19
2022-11-23T09:26:53.546Z,97671.41
2022-11-23T09:29:20.662Z,97679.69
2022-11-23T09:31:47.790Z,97680.50
2022-11-23T09:34:15.169Z,97676.22
2022-11-23T09:36:42.363Z,97662.88
2022-11-23T09:39:09.488Z,97674.28
2022-11-23T09:41:42.160Z,97670.31
2022-11-23T09:44:27.351Z,97668.72
2022-11-23T09:47:02.814Z,97664.91
2022-11-23T09:49:48.581Z,97667.59
2022-11-23T09:52:19.785Z,97676.31
2022-11-23T09:54:46.942Z,97664.19
2022-11-23T09:57:15.437Z,97672.88
2022-11-23T09:59:43.947Z,97661.19
2022-11-23T10:02:21.223Z,97657.97
2022-11-23T10:04:48.583Z,97665.53
2022-11-23T10:07:22.863Z,97661.22
2022-11-23T10:09:54.188Z,97664.34
2022-11-23T10:12:21.385Z,97660.13
2022-11-23T10:14:53.665Z,97666.75
2022-11-23T10:17:20.961Z,97664.47
2022-11-23T10:19:48.006Z,97666.16
2022-11-23T10:22:15.021Z,97670.19
2022-11-23T10:24:43.093Z,97663.13
2022-11-23T10:27:20.145Z,97659.19
2022-11-23T10:29:47.958Z,97673.56
2022-11-23T10:32:22.253Z,97665.44
2022-11-23T10:34:51.593Z,97658.09
2022-11-23T10:37:18.702Z,97657.56
2022-11-23T10:39:45.841Z,97653.25
2022-11-23T10:42:22.005Z,97660.00
2022-11-23T10:44:49.649Z,97657.12
2022-11-23T10:47:35.943Z,97661.75
2022-11-23T10:50:03.322Z,97660.56
2022-11-23T10:52:33.397Z,97662.75
2022-11-23T10:55:01.189Z,97646.97
2022-11-23T10:57:28.253Z,97653.50
2022-11-23T10:59:59.770Z,97655.09
2022-11-23T11:02:26.911Z,97655.59
2022-11-23T11:05:12.804Z,97647.34
2022-11-23T11:07:40.184Z,97645.06
2022-11-23T11:10:09.334Z,97646.87
2022-11-23T11:12:36.465Z,97646.28
2022-11-23T11:15:11.729Z,97645.03
2022-11-23T11:17:39.701Z,97656.50
2022-11-23T11:20:26.145Z,97640.50
2022-11-23T11:22:53.549Z,97646.75
2022-11-23T11:25:39.093Z,97645.78
2022-11-23T11:28:26.469Z,97648.25
2022-11-23T11:30:53.781Z,97654.00
2022-11-23T11:33:26.440Z,97652.03
2022-11-23T11:35:53.816Z,97657.41
2022-11-23T11:38:32.525Z,97662.31
2022-11-23T11:41:00.883Z,97657.47
2022-11-23T11:43:40.175Z,97662.03
2022-11-23T11:46:28.713Z,97658.59
2022-11-23T11:49:04.226Z,97656.53
2022-11-23T11:51:52.191Z,97657.69
2022-11-23T11:54:22.418Z,97659.66
2022-11-23T11:56:54.319Z,97669.00
2022-11-23T11:59:42.933Z,97669.75
2022-11-23T12:02:21.221Z,97665.09
2022-11-23T12:04:54.601Z,97672.19
2022-11-23T12:07:27.692Z,97665.81
2022-11-23T12:09:57.317Z,97679.97
2022-11-23T12:12:29.584Z,97673.22
2022-11-23T12:14:57.455Z,97680.38
2022-11-23T12:17:36.739Z,97670.44
2022-11-23T12:20:06.965Z,97671.38
2022-11-23T12:22:34.019Z,97673.47
2022-11-23T12:25:19.544Z,97659.16
2022-11-23T12:27:49.538Z,97667.16
2022-11-23T12:30:41.519Z,97658.38
2022-11-23T12:33:28.913Z,97661.44
2022-11-23T12:35:56.201Z,97649.78
2022-11-23T12:38:38.787Z,97655.38
2022-11-23T12:41:19.326Z,97656.31
2022-11-23T12:43:49.765Z,97644.38
2022-11-23T12:46:26.222Z,97644.78
2022-11-23T12:48:53.546Z,97652.59
2022-11-23T12:51:20.984Z,97653.56
2022-11-23T12:54:03.405Z,97656.59
2022-11-23T12:56:37.779Z,97657.25
2022-11-23T12:59:07.265Z,97659.13
2022-11-23T13:01:48.713Z,97658.47
2022-11-23T13:04:21.999Z,97663.78
2022-11-23T13:10:07.383Z,97662.25
2022-11-23T13:12:40.189Z,97663.88
2022-11-23T13:15:14.752Z,97673.03
2022-11-23T13:17:51.775Z,97670.84
2022-11-23T13:20:25.441Z,97669.63
2022-11-23T13:22:52.837Z,97669.28
2022-11-23T13:25:38.623Z,97675.50
2022-11-23T13:28:24.841Z,97669.69
2022-11-23T13:31:15.412Z,97669.72
2022-11-23T13:33:44.009Z,97679.50
2022-11-23T13:36:16.900Z,97670.84
2022-11-23T13:38:47.174Z,97679.66
2022-11-23T13:41:33.621Z,97676.16
2022-11-23T13:44:11.364Z,97682.16
2022-11-23T13:46:38.525Z,97689.59
2022-11-23T13:49:05.902Z,97686.94
2022-11-23T13:51:34.040Z,97677.44
2022-11-23T13:54:19.920Z,97678.00
2022-11-23T13:56:47.290Z,97677.69
2022-11-23T13:59:20.930Z,97681.12
2022-11-23T14:01:57.312Z,97675.13
2022-11-23T14:04:25.465Z,97676.09
2022-11-23T14:06:59.809Z,97688.56
2022-11-23T14:09:27.147Z,97688.56
2022-11-23T14:11:57.005Z,97688.25
2022-11-23T14:14:25.260Z,97684.00
2022-11-23T14:16:52.603Z,97685.25
2022-11-23T14:19:22.066Z,97691.47
2022-11-23T14:21:49.061Z,97694.53
2022-11-23T14:24:26.185Z,97695.06
2022-11-23T14:27:31.192Z,97689.84
2022-11-23T14:29:55.731Z,97693.28
2022-11-23T14:32:22.991Z,97696.06
2022-11-23T14:35:07.182Z,97699.66
2022-11-23T14:37:43.749Z,97694.69
2022-11-23T14:40:29.638Z,97701.50
2022-11-23T14:42:57.531Z,97703.47
2022-11-23T14:45:31.641Z,97702.19
2022-11-23T14:48:19.012Z,97706.94
2022-11-23T14:50:47.271Z,97705.88
2022-11-23T14:53:14.626Z,97704.34
2022-11-23T14:55:41.727Z,97704.31
2022-11-23T14:58:11.932Z,97708.91
2022-11-23T15:00:39.962Z,97700.78
2022-11-23T15:03:48.693Z,97712.97
2022-11-23T15:06:14.513Z,97708.69
2022-11-23T15:08:41.548Z,97717.59
2022-11-23T15:11:12.347Z,97716.75
2022-11-23T15:14:03.945Z,97711.78
2022-11-23T15:16:38.580Z,97717.69
2022-11-23T15:19:31.765Z,97723.63
2022-11-23T15:21:59.151Z,97731.47
2022-11-23T15:24:26.826Z,97734.09
2022-11-23T15:26:56.324Z,97728.25
2022-11-23T15:29:30.754Z,97737.56
2022-11-23T15:34:46.319Z,97734.09
2022-11-23T15:37:13.433Z,97732.84
2022-11-23T15:39:40.524Z,97740.28
2022-11-23T15:42:08.673Z,97741.16
2022-11-23T15:44:35.942Z,97747.06
2022-11-23T15:47:03.579Z,97743.91
2022-11-23T15:49:31.244Z,97750.09
2022-11-23T15:52:01.579Z,97755.59
2022-11-23T15:54:31.083Z,97751.97
2022-11-23T15:56:58.682Z,97757.94
2022-11-23T15:59:30.740Z,97766.41
2022-11-23T16:01:58.190Z,97768.22
2022-11-23T16:04:29.617Z,97767.28
2022-11-23T16:06:57.268Z,97765.91
2022-11-23T16:09:50.607Z,97773.44
2022-11-23T16:12:22.810Z,97783.00
2022-11-23T16:14:49.920Z,97779.12
2022-11-23T16:17:18.160Z,97786.34
2022-11-23T16:19:49.081Z,97781.53
2022-11-23T16:22:36.702Z,97799.16
2022-11-23T16:25:05.411Z,97802.31
2022-11-23T16:27:32.568Z,97792.88
2022-11-23T16:30:03.379Z,97793.72
2022-11-23T16:32:31.872Z,97801.28
2022-11-23T16:35:06.582Z,97804.25
2022-11-23T16:37:33.963Z,97799.38
2022-11-23T16:40:01.089Z,97793.69
2022-11-23T16:42:28.219Z,97810.06
2022-11-23T16:44:55.757Z,97796.72
2022-11-23T16:47:24.253Z,97794.84
2022-11-23T16:49:51.883Z,97810.75
2022-11-23T16:52:19.322Z,97801.72
2022-11-23T16:54:46.903Z,97800.38
2022-11-23T16:57:23.664Z,97795.94
2022-11-23T16:59:51.881Z,97807.53
2022-11-23T17:02:20.103Z,97805.53
2022-11-23T17:04:49.035Z,97804.41
2022-11-23T17:07:16.990Z,97802.38
2022-11-23T17:09:44.459Z,97800.75
2022-11-23T17:12:16.294Z,97804.19
2022-11-23T17:14:45.546Z,97813.78
2022-11-23T17:17:14.738Z,97806.53
2022-11-23T17:19:42.522Z,97806.16
2022-11-23T17:22:10.944Z,97804.91
2022-11-23T17:24:39.140Z,97809.84
2022-11-23T17:27:06.809Z,97806.81
2022-11-23T17:29:39.044Z,97814.78
2022-11-23T17:32:13.034Z,97805.09
2022-11-23T17:34:40.777Z,97810.69
2022-11-23T17:37:19.589Z,97811.31
2022-11-23T17:39:47.861Z,97815.44
2022-11-23T17:42:16.788Z,97805.72
2022-11-23T17:44:44.884Z,97807.00
2022-11-23T17:47:24.424Z,97805.75
2022-11-23T17:49:53.015Z,97795.19
2022-11-23T17:52:21.196Z,97811.41
2022-11-23T17:54:49.005Z,97807.13
2022-11-23T17:57:17.676Z,97802.38
2022-11-23T17:59:46.596Z,97814.72
2022-11-23T18:02:18.147Z,97814.72
2022-11-23T18:04:46.503Z,97818.16
2022-11-23T18:07:14.640Z,97812.56
2022-11-23T18:09:42.113Z,97813.00
2022-11-23T18:12:10.122Z,97815.69
2022-11-23T18:14:38.078Z,97822.44
2022-11-23T18:17:06.401Z,97816.34
2022-11-23T18:19:35.909Z,97824.97
2022-11-23T18:22:06.993Z,97818.59
2022-11-23T18:24:35.507Z,97822.38
2022-11-23T18:27:04.802Z,97812.72
2022-11-23T18:29:32.831Z,97809.03
2022-11-23T18:32:01.120Z,97817.84
2022-11-23T18:34:28.994Z,97813.53
2022-11-23T18:36:56.754Z,97815.66
2022-11-23T18:39:24.191Z,97811.72
2022-11-23T18:41:52.870Z,97807.69
2022-11-23T18:44:20.204Z,97817.31
2022-11-23T18:46:48.160Z,97817.84
2022-11-23T18:49:17.121Z,97818.69
2022-11-23T18:51:44.494Z,97820.00
2022-11-23T18:54:19.890Z,97826.22
2022-11-23T18:56:47.208Z,97830.31
2022-11-23T18:59:28.986Z,97827.97
2022-11-23T19:02:04.480Z,97828.84
2022-11-23T19:04:32.938Z,97822.22
2022-11-23T19:07:00.803Z,97827.66
2022-11-23T19:09:28.630Z,97822.47
2022-11-23T19:11:56.882Z,97833.62
2022-11-23T19:14:24.609Z,97827.06
2022-11-23T19:16:52.367Z,97838.47
2022-11-23T19:19:20.400Z,97834.66
2022-11-23T19:21:47.777Z,97831.84
2022-11-23T19:24:18.436Z,97844.13
2022-11-23T19:26:47.234Z,97839.06
2022-11-23T19:29:14.395Z,97839.56
2022-11-23T19:31:44.251Z,97839.31
2022-11-23T19:34:13.141Z,97843.16
2022-11-23T19:36:41.921Z,97843.03
2022-11-23T19:39:11.196Z,97843.50
2022-11-23T19:41:39.713Z,97853.34
2022-11-23T19:44:08.610Z,97862.34
2022-11-23T19:46:36.588Z,97859.06
2022-11-23T19:49:05.310Z,97858.59
2022-11-23T19:51:32.699Z,97857.56
2022-11-23T19:54:02.060Z,97856.03
2022-11-23T19:56:29.859Z,97861.66
2022-11-23T19:58:58.472Z,97861.19
2022-11-23T20:01:27.104Z,97859.47
2022-11-23T20:03:54.994Z,97854.66
2022-11-23T20:06:27.192Z,97865.06
2022-11-23T20:09:05.237Z,97866.13
2022-11-23T20:11:33.566Z,97867.41
2022-11-23T20:14:01.932Z,97877.38
2022-11-23T20:16:31.358Z,97864.91
2022-11-23T20:19:01.171Z,97879.91
2022-11-23T20:21:29.765Z,97881.78
2022-11-23T20:24:04.431Z,97882.34
2022-11-23T20:26:34.427Z,97888.53
2022-11-23T20:29:02.071Z,97880.69
2022-11-23T20:31:30.748Z,97885.44
2022-11-23T20:34:00.764Z,97888.97
2022-11-23T20:36:30.663Z,97884.78
2022-11-23T20:38:59.576Z,97889.13
2022-11-23T20:41:28.284Z,97889.84
2022-11-23T20:43:56.836Z,97890.66
2022-11-23T20:46:59.925Z,97896.81
2022-11-23T20:49:13.776Z,97900.84
2022-11-23T20:51:41.391Z,97904.59
2022-11-23T20:54:08.986Z,97913.06
2022-11-23T20:56:43.486Z,97918.44
2022-11-23T20:59:11.851Z,97917.84
2022-11-23T21:01:40.730Z,97915.59
2022-11-23T21:04:11.076Z,97922.78
2022-11-23T21:06:39.697Z,97909.66
2022-11-23T21:09:11.161Z,97918.13
2022-11-23T21:11:57.331Z,97918.00
2022-11-23T21:14:27.273Z,97916.03
2022-11-23T21:16:56.279Z,97920.91
2022-11-23T21:19:30.851Z,97924.47
2022-11-23T21:21:59.075Z,97920.91
2022-11-23T21:24:26.630Z,97928.84
2022-11-23T21:26:54.187Z,97920.81
2022-11-23T21:29:21.884Z,97912.59
2022-11-23T21:31:49.159Z,97931.06
2022-11-23T21:34:20.136Z,97927.09
2022-11-23T21:36:47.787Z,97924.16
2022-11-23T21:39:15.223Z,97929.28
2022-11-23T21:41:42.394Z,97937.28
2022-11-23T21:44:09.987Z,97931.16
2022-11-23T21:46:37.550Z,97930.28
2022-11-23T21:49:04.892Z,97931.88
2022-11-23T21:51:32.740Z,97934.44
2022-11-23T21:54:00.686Z,97936.78
2022-11-23T21:56:28.304Z,97934.84
2022-11-23T21:58:56.153Z,97946.81
2022-11-23T22:01:24.273Z,97944.41
2022-11-23T22:03:53.265Z,97941.13
2022-11-23T22:06:20.946Z,97945.94
2022-11-23T22:08:49.232Z,97949.94
2022-11-23T22:11:19.902Z,97945.16
2022-11-23T22:13:47.030Z,97945.91
2022-11-23T22:16:20.889Z,97939.34
2022-11-23T22:18:53.990Z,97954.44
2022-11-23T22:21:26.723Z,97951.44
2022-11-23T22:23:54.138Z,97949.44
2022-11-23T22:26:21.485Z,97948.19
2022-11-23T22:28:49.421Z,97945.72
2022-11-23T22:31:18.643Z,97952.28
2022-11-23T22:33:46.076Z,97947.56
2022-11-23T22:36:17.367Z,97952.41
2022-11-23T22:38:44.942Z,97945.16
2022-11-23T22:41:12.985Z,97951.09
2022-11-23T22:43:40.143Z,97953.53
2022-11-23T22:46:11.186Z,97951.25
2022-11-23T22:48:42.179Z,97958.72
2022-11-23T22:51:10.318Z,97952.66
2022-11-23T22:53:44.603Z,97957.63
2022-11-23T22:56:13.125Z,97959.28
2022-11-23T22:58:40.339Z,97956.50
2022-11-23T23:01:08.386Z,97959.25
2022-11-23T23:03:35.881Z,97960.88
2022-11-23T23:06:03.430Z,97967.19
2022-11-23T23:08:30.735Z,97972.47
2022-11-23T23:11:03.276Z,97971.13
2022-11-23T23:13:30.488Z,97980.84
2022-11-23T23:16:01.503Z,97982.59
2022-11-23T23:18:28.766Z,97974.81
2022-11-23T23:21:01.905Z,97980.38
2022-11-23T23:23:30.411Z,97981.59
2022-11-23T23:25:57.584Z,97976.06
2022-11-23T23:28:24.780Z,97985.19
2022-11-23T23:30:52.169Z,97981.37
2022-11-23T23:33:19.493Z,97993.72
2022-11-23T23:35:46.625Z,97992.75
2022-11-23T23:38:14.219Z,97994.72
2022-11-23T23:40:41.345Z,97991.56
2022-11-23T23:43:08.486Z,97993.53
2022-11-23T23:45:35.935Z,97996.78
2022-11-23T23:48:03.087Z,98001.63
2022-11-23T23:50:30.197Z,98008.44
2022-11-23T23:52:57.623Z,98003.37
2022-11-23T23:55:24.782Z,98012.25
2022-11-23T23:57:51.919Z,98005.41
